Terminal Aerodrome Forecast
Issued by NWS Atlanta, GA

Home | Current Version | Previous Version | Text Only | Print | Product List | Glossary On
Versions: 1 2 3 4 5 6 7 8 9 10 11 12 13 14 15 16 17 18 19 20 21 22 23 24 25 26 27 28 29 30
093
FTAK31 PAJN 231139
TAFAHN
TAF
PAHN 231139Z 2312/2412 29007KT 6SM BR OVC007
      TEMPO 2312/2316 3SM -SHRA BR OVC007
     FM231700 29005KT 6SM -SHRA BR SCT007 BKN015 OVC025
     FM232100 10009KT P6SM VCSH SCT015 BKN025 OVC040
     FM240900 09006KT 6SM -RA BKN015 OVC030
      AMD LTD TO CLD VIS AND WIND=

USA.gov is the U.S. government's official web portal to all federal, state and local government web resources and services.